< < Back
Terminal Aerodrome Forecast


Current Version              Previous Versions:   1  2  3  4  5  6  7  8  9  

Terminal Aerodrome Forecast

724
FTUS42 KFFC 050520
TAFPDK
TAF
KPDK 050520Z 0506/0606 25003KT P6SM SCT015 BKN030
     FM050800 25003KT P6SM BKN015
      TEMPO 0508/0512 5SM BR BKN008
     FM051400 25005KT P6SM VCSH BKN030
     FM051900 22009G14KT P6SM VCSH BKN050 PROB30 0519/0524 -TSRA
      BKN025CB
     FM060200 25003KT P6SM BKN040=

Latest METAR

615
SAUS70 KWBC 050700 RRL
MTRPDK
METAR KPDK 050653Z 22007KT 8SM CLR 21/20 A3009 RMK AO2 SLP174
T02060200


USA.gov is the U.S. government's official web portal to all federal, state and local government web resources and services.